Time;durP1;ratioP1;P1;durP2;ratioP2;P2;SDS_P1;SDS_P2;PMS_P1;PMS_P2;Temp;Humidity;BMP_temperature;BMP_pressure;BME280_temperature;BME280_humidity;BME280_pressure;Samples;Min_cycle;Max_cycle;Signal;HPM_P1;HPM_P2
2024/04/03 00:00:05;;;;;;;0.10;0.10;;;10.10;75.50;;;;;;5078736;28;20098;-69
2024/04/03 00:02:31;;;;;;;1.73;0.45;;;10.10;75.50;;;;;;5080005;28;20036;-70
2024/04/03 00:04:58;;;;;;;2.75;0.30;;;10.10;75.60;;;;;;5079859;28;20039;-70
2024/04/03 00:07:24;;;;;;;0.90;0.32;;;10.10;75.60;;;;;;5086388;28;20051;-71
2024/04/03 00:09:49;;;;;;;1.85;0.32;;;10.10;75.30;;;;;;5080066;28;20340;-70
2024/04/03 00:12:15;;;;;;;0.65;0.30;;;10.10;75.30;;;;;;5079683;28;20021;-71
2024/04/03 00:14:41;;;;;;;0.50;0.40;;;10.10;74.50;;;;;;5079467;28;20035;-67
2024/04/03 00:17:07;;;;;;;0.85;0.32;;;10.10;75.10;;;;;;5079653;28;20029;-67
2024/04/03 00:19:33;;;;;;;0.73;0.32;;;10.10;74.70;;;;;;5079504;28;20351;-67
2024/04/03 00:21:59;;;;;;;0.73;0.65;;;10.10;94.30;;;;;;5078181;28;20251;-67
2024/04/03 00:24:25;;;;;;;1.02;0.70;;;10.10;73.90;;;;;;5079068;28;20047;-68
2024/04/03 00:26:50;;;;;;;3.55;0.82;;;10.10;73.90;;;;;;5079802;28;20028;-70
2024/04/03 00:29:16;;;;;;;1.45;0.63;;;10.10;74.30;;;;;;5083392;28;20024;-70
2024/04/03 00:31:42;;;;;;;1.63;0.85;;;10.00;74.80;;;;;;5086634;28;20097;-70
2024/04/03 00:34:07;;;;;;;1.02;0.80;;;9.90;75.00;;;;;;5082249;28;20232;-69
2024/04/03 00:36:36;;;;;;;2.03;0.90;;;9.80;75.30;;;;;;5083724;28;20157;-68
2024/04/03 00:39:02;;;;;;;1.15;0.60;;;9.70;76.00;;;;;;5074938;28;20028;-67
2024/04/03 00:41:29;;;;;;;0.88;0.50;;;9.70;75.90;;;;;;5083407;28;20462;-68
2024/04/03 00:43:55;;;;;;;0.90;0.45;;;9.60;75.70;;;;;;5083763;28;20028;-68
2024/04/03 00:46:21;;;;;;;1.13;0.30;;;9.80;96.40;;;;;;5083289;28;20038;-66
2024/04/03 00:48:48;;;;;;;0.38;0.38;;;9.70;74.60;;;;;;5083235;28;20032;-66
2024/04/03 00:51:13;;;;;;;1.95;0.70;;;9.80;73.90;;;;;;5083444;28;20036;-66
2024/04/03 00:53:39;;;;;;;1.33;0.63;;;9.80;73.50;;;;;;5082913;28;20269;-68
2024/04/03 00:56:08;;;;;;;2.15;1.17;;;9.80;73.80;;;;;;5083109;28;20313;-68
2024/04/03 00:58:36;;;;;;;2.78;1.23;;;9.70;74.10;;;;;;5083061;28;20224;-68
2024/04/03 01:01:02;;;;;;;5.53;2.83;;;9.60;74.70;;;;;;5083669;28;20323;-68
2024/04/03 01:03:28;;;;;;;4.45;2.03;;;9.60;75.20;;;;;;5081802;28;20043;-68
2024/04/03 01:06:03;;;;;;;6.32;2.40;;;9.40;75.50;;;;;;5082679;28;20037;-68
2024/04/03 01:08:29;;;;;;;2.60;1.95;;;9.30;78.00;;;;;;5082908;28;20231;-68
2024/04/03 01:10:59;;;;;;;3.85;1.67;;;9.20;76.50;;;;;;5082556;28;20339;-68
2024/04/03 01:13:25;;;;;;;0.85;0.60;;;9.10;97.30;;;;;;5081395;28;20043;-68
2024/04/03 01:15:58;;;;;;;0.52;0.30;;;9.20;75.70;;;;;;5082844;28;20021;-68
2024/04/03 01:18:23;;;;;;;0.47;0.30;;;9.30;74.80;;;;;;5083182;28;20028;-68
2024/04/03 01:20:49;;;;;;;1.25;0.50;;;9.40;74.00;;;;;;5082392;28;20209;-68
2024/04/03 01:23:15;;;;;;;0.88;0.50;;;9.50;73.60;;;;;;5082471;28;20290;-68
2024/04/03 01:25:40;;;;;;;1.75;0.70;;;9.50;73.10;;;;;;5082517;28;20357;-68
2024/04/03 01:28:06;;;;;;;1.65;0.40;;;9.50;72.80;;;;;;5092759;28;20024;-68
2024/04/03 01:30:32;;;;;;;1.02;0.45;;;9.50;72.40;;;;;;5092213;28;20453;-68
2024/04/03 01:32:57;;;;;;;1.08;0.50;;;9.60;71.90;;;;;;5082846;28;20082;-68
2024/04/03 01:35:23;;;;;;;0.40;0.40;;;9.80;94.30;;;;;;5082889;28;20033;-68
2024/04/03 01:37:49;;;;;;;1.48;0.47;;;9.60;71.00;;;;;;5082257;28;20033;-68
2024/04/03 01:40:14;;;;;;;1.25;0.30;;;9.60;70.50;;;;;;5080991;28;20422;-69
2024/04/03 01:42:40;;;;;;;1.33;0.60;;;9.70;70.00;;;;;;5080156;28;20254;-68
2024/04/03 01:45:06;;;;;;;3.40;1.10;;;9.70;70.00;;;;;;5089666;28;20319;-67
2024/04/03 01:47:31;;;;;;;4.57;1.52;;;9.60;70.10;;;;;;5092436;28;20039;-68
2024/04/03 01:50:01;;;;;;;4.22;1.52;;;9.60;70.50;;;;;;5082358;28;20062;-68
2024/04/03 01:52:27;;;;;;;3.45;1.17;;;9.50;71.00;;;;;;5094524;28;20034;-67
2024/04/03 01:54:52;;;;;;;1.95;0.93;;;9.40;71.50;;;;;;5083113;28;20036;-67
2024/04/03 01:57:18;;;;;;;3.17;1.30;;;9.30;72.00;;;;;;5080781;28;20024;-67
2024/04/03 01:59:44;;;;;;;2.13;1.27;;;9.10;72.60;;;;;;5081843;28;20036;-67
2024/04/03 02:02:09;;;;;;;2.38;0.65;;;9.00;73.60;;;;;;5081907;28;20103;-69
2024/04/03 02:04:35;;;;;;;4.70;0.60;;;8.90;73.60;;;;;;5081775;28;20071;-69
2024/04/03 02:07:01;;;;;;;2.03;0.52;;;8.90;74.30;;;;;;5081632;28;20024;-68
2024/04/03 02:09:26;;;;;;;0.93;0.60;;;8.90;77.60;;;;;;5082252;28;20099;-68
2024/04/03 02:11:52;;;;;;;1.98;0.60;;;8.80;74.60;;;;;;5081578;28;20066;-68
2024/04/03 02:14:17;;;;;;;1.20;0.60;;;8.80;74.70;;;;;;5081405;28;20024;-68
2024/04/03 02:16:43;;;;;;;1.67;0.98;;;8.70;74.90;;;;;;5081414;28;20032;-68
2024/04/03 02:19:09;;;;;;;2.58;1.30;;;8.80;75.10;;;;;;5081509;28;20477;-68
2024/04/03 02:21:38;;;;;;;0.88;0.63;;;8.90;75.70;;;;;;5081488;28;20115;-68
2024/04/03 02:24:04;;;;;;;0.80;0.80;;;8.70;75.80;;;;;;5080217;28;20044;-68
2024/04/03 02:26:30;;;;;;;1.70;0.65;;;8.70;76.00;;;;;;5087372;28;20107;-68
2024/04/03 02:28:55;;;;;;;1.77;0.38;;;8.60;76.50;;;;;;5081911;28;20040;-68
2024/04/03 02:31:21;;;;;;;0.68;0.57;;;8.50;77.30;;;;;;5081269;28;20074;-68
2024/04/03 02:33:47;;;;;;;0.73;0.50;;;8.50;77.90;;;;;;5080993;28;20083;-68
2024/04/03 02:36:13;;;;;;;1.45;0.50;;;8.40;77.60;;;;;;5079985;28;20486;-68
2024/04/03 02:38:39;;;;;;;0.70;0.50;;;8.40;78.30;;;;;;5080978;28;20088;-68
2024/04/03 02:41:05;;;;;;;1.52;1.08;;;8.40;80.00;;;;;;5081169;28;20024;-68
2024/04/03 02:43:31;;;;;;;3.33;0.75;;;8.40;79.00;;;;;;5081632;28;20147;-68
2024/04/03 02:45:57;;;;;;;1.00;0.70;;;8.40;79.70;;;;;;5080858;28;20040;-68
2024/04/03 02:48:23;;;;;;;0.85;0.50;;;8.40;79.50;;;;;;5080956;28;20091;-68
2024/04/03 02:50:50;;;;;;;1.02;0.80;;;8.40;79.90;;;;;;5079477;28;20266;-68
2024/04/03 02:53:18;;;;;;;1.27;0.90;;;8.40;80.20;;;;;;5079795;28;20036;-69
2024/04/03 02:55:44;;;;;;;2.88;1.02;;;;;;;;;;5079383;28;20100;-68
2024/04/03 02:58:10;;;;;;;1.52;0.63;;;8.30;82.70;;;;;;5085814;28;20150;-67
2024/04/03 03:00:36;;;;;;;5.78;1.73;;;8.40;81.60;;;;;;5081633;28;20348;-68
2024/04/03 03:03:01;;;;;;;4.07;0.65;;;8.20;99.50;;;;;;5080408;28;20025;-65
2024/04/03 03:05:27;;;;;;;1.45;0.65;;;8.30;81.90;;;;;;5080615;28;20028;-66
2024/04/03 03:07:53;;;;;;;1.40;0.68;;;8.30;82.70;;;;;;5080374;28;20025;-66
2024/04/03 03:10:18;;;;;;;3.30;0.60;;;8.30;82.70;;;;;;5080500;28;20032;-65
2024/04/03 03:12:44;;;;;;;1.23;0.68;;;8.30;82.80;;;;;;5080187;28;20052;-66
2024/04/03 03:15:10;;;;;;;0.75;0.50;;;8.30;82.80;;;;;;5062491;28;20027;-65
2024/04/03 03:17:35;;;;;;;2.15;0.70;;;8.30;83.10;;;;;;5086172;28;20036;-65
2024/04/03 03:20:01;;;;;;;1.55;0.65;;;8.30;83.20;;;;;;5080130;28;20044;-67
2024/04/03 03:22:27;;;;;;;0.88;0.55;;;8.30;83.40;;;;;;5080250;28;20103;-67
2024/04/03 03:24:52;;;;;;;1.80;0.70;;;8.20;83.90;;;;;;5079808;28;20399;-67
2024/04/03 03:27:18;;;;;;;1.70;0.60;;;8.10;84.50;;;;;;5080156;28;20347;-69
2024/04/03 03:29:43;;;;;;;2.80;0.60;;;8.00;85.70;;;;;;5080254;28;20040;-68
2024/04/03 03:32:09;;;;;;;0.90;0.60;;;7.90;86.70;;;;;;5080024;28;20036;-67
2024/04/03 03:34:35;;;;;;;1.25;0.93;;;7.80;87.80;;;;;;5081331;28;20037;-67
2024/04/03 03:37:00;;;;;;;0.47;0.40;;;7.70;89.20;;;;;;5082834;28;20367;-66
2024/04/03 03:39:26;;;;;;;1.65;0.70;;;7.50;89.50;;;;;;5084377;28;20028;-67
2024/04/03 03:41:52;;;;;;;0.85;0.68;;;7.60;90.10;;;;;;5087147;28;20040;-65
2024/04/03 03:44:18;;;;;;;1.33;0.50;;;7.50;90.70;;;;;;5082948;28;20066;-66
2024/04/03 03:46:44;;;;;;;1.20;0.80;;;7.50;90.90;;;;;;5079857;28;20035;-67
2024/04/03 03:54:38;;;;;;;1.48;0.50;;;7.50;90.90;;;;;;5079655;28;20386;-67
2024/04/03 03:57:04;;;;;;;1.08;0.77;;;7.50;90.80;;;;;;5079812;28;20024;-67
2024/04/03 03:59:29;;;;;;;2.75;0.88;;;7.70;99.90;;;;;;5078296;28;20096;-68
2024/04/03 04:01:58;;;;;;;1.23;0.70;;;7.60;90.40;;;;;;5078892;28;20091;-66
2024/04/03 04:04:24;;;;;;;1.48;1.02;;;7.70;90.30;;;;;;5078514;28;20028;-67
2024/04/03 04:06:49;;;;;;;0.60;0.60;;;7.70;90.10;;;;;;5078842;28;20232;-67
2024/04/03 04:09:15;;;;;;;1.55;0.90;;;7.80;89.90;;;;;;5079911;28;20051;-67
2024/04/03 04:11:41;;;;;;;1.58;0.60;;;7.90;89.50;;;;;;5079435;28;20067;-68
2024/04/03 04:14:07;;;;;;;1.70;0.50;;;8.00;87.80;;;;;;5079463;28;20023;-68
2024/04/03 04:16:33;;;;;;;2.92;0.60;;;8.10;99.90;;;;;;5079934;28;20372;-68
2024/04/03 04:18:58;;;;;;;1.55;0.40;;;8.00;87.50;;;;;;5079548;28;20316;-68
2024/04/03 04:21:24;;;;;;;0.60;0.50;;;8.10;87.20;;;;;;5079466;28;20036;-66
2024/04/03 04:23:50;;;;;;;1.52;0.65;;;8.10;86.90;;;;;;5078003;28;20530;-66
2024/04/03 04:26:17;;;;;;;1.10;0.73;;;8.10;86.80;;;;;;5086332;28;20047;-66
2024/04/03 04:28:43;;;;;;;1.55;0.75;;;8.10;86.90;;;;;;5081434;28;20071;-66
2024/04/03 04:31:08;;;;;;;1.00;0.50;;;8.10;86.80;;;;;;5085126;28;20100;-66
2024/04/03 04:33:37;;;;;;;0.52;0.50;;;8.00;88.10;;;;;;5079654;28;20039;-66
2024/04/03 04:36:02;;;;;;;4.53;0.80;;;10.00;89.60;;;;;;5083119;28;20036;-66
2024/04/03 04:38:28;;;;;;;0.40;0.40;;;7.80;89.70;;;;;;5079461;28;20280;-67
2024/04/03 04:40:57;;;;;;;1.52;0.80;;;7.80;99.90;;;;;;5079402;28;20048;-67
2024/04/03 04:43:29;;;;;;;0.70;0.43;;;7.60;90.70;;;;;;5084252;28;20063;-66
2024/04/03 04:46:04;;;;;;;1.08;0.75;;;7.60;91.10;;;;;;5083956;28;20043;-67
2024/04/03 04:48:33;;;;;;;0.38;0.30;;;7.60;91.20;;;;;;5083315;28;20035;-66
2024/04/03 04:51:01;;;;;;;0.43;0.40;;;7.60;91.30;;;;;;5078183;28;20132;-67
2024/04/03 04:53:28;;;;;;;0.82;0.60;;;7.50;91.50;;;;;;5078988;28;20028;-66
2024/04/03 04:55:55;;;;;;;3.38;0.70;;;7.60;91.80;;;;;;5080920;28;20107;-66
2024/04/03 04:58:25;;;;;;;1.20;0.52;;;7.50;91.80;;;;;;5086293;28;20020;-66
2024/04/03 05:01:06;;;;;;;0.70;0.50;;;7.50;91.80;;;;;;5075660;28;20048;-67
2024/04/03 05:03:33;;;;;;;0.60;0.60;;;7.50;92.10;;;;;;5079210;28;20020;-66
2024/04/03 05:05:59;;;;;;;0.82;0.40;;;7.50;92.30;;;;;;5079224;28;20267;-66
2024/04/03 05:08:26;;;;;;;0.50;0.45;;;7.50;92.50;;;;;;5085024;28;20377;-65
2024/04/03 05:10:56;;;;;;;2.60;0.65;;;7.40;92.60;;;;;;5078664;28;20028;-67
2024/04/03 05:13:34;;;;;;;1.45;0.60;;;7.50;99.90;;;;;;5079233;28;20149;-65
2024/04/03 05:16:07;;;;;;;4.40;0.63;;;7.50;99.90;;;;;;5083054;28;20216;-64
2024/04/03 05:18:34;;;;;;;3.90;0.50;;;7.50;93.10;;;;;;5084296;28;20087;-65
2024/04/03 05:21:00;;;;;;;1.38;0.85;;;7.40;93.20;;;;;;5082550;28;20024;-67
2024/04/03 05:23:25;;;;;;;1.33;0.70;;;7.50;93.20;;;;;;5090229;28;20384;-67
2024/04/03 05:25:58;;;;;;;1.30;0.70;;;7.50;93.10;;;;;;5089833;28;20103;-67
2024/04/03 05:28:25;;;;;;;5.10;0.65;;;7.50;93.40;;;;;;5089250;28;20074;-67
2024/04/03 05:30:51;;;;;;;1.52;0.70;;;7.50;93.70;;;;;;5091537;28;20024;-66
2024/04/03 05:33:17;;;;;;;1.45;1.23;;;7.50;93.60;;;;;;5094077;28;20035;-65
2024/04/03 05:35:52;;;;;;;1.00;0.60;;;7.50;93.90;;;;;;5082463;28;20024;-65
2024/04/03 05:38:18;;;;;;;1.05;0.60;;;7.60;94.10;;;;;;5089392;28;20036;-65
2024/04/03 05:40:45;;;;;;;0.60;0.60;;;7.60;94.10;;;;;;5081970;28;20350;-67
2024/04/03 05:43:10;;;;;;;2.03;0.75;;;7.70;94.30;;;;;;5085665;28;20032;-66
2024/04/03 05:45:36;;;;;;;1.15;0.60;;;7.70;94.20;;;;;;5082073;28;20358;-67
2024/04/03 05:48:02;;;;;;;0.85;0.70;;;7.70;94.30;;;;;;5080695;28;20154;-66
2024/04/03 05:50:27;;;;;;;2.55;0.75;;;7.80;94.50;;;;;;5081349;28;20044;-65
2024/04/03 05:52:54;;;;;;;1.67;0.93;;;7.90;94.30;;;;;;5080952;28;20091;-66
2024/04/03 05:55:19;;;;;;;2.00;0.70;;;8.00;93.90;;;;;;5082817;28;20039;-65
2024/04/03 05:57:45;;;;;;;1.42;0.70;;;8.10;94.10;;;;;;5090384;28;20036;-66
2024/04/03 06:00:13;;;;;;;2.42;1.20;;;8.10;94.00;;;;;;5081730;28;20378;-67
2024/04/03 06:02:40;;;;;;;2.58;0.60;;;8.20;94.10;;;;;;5081677;28;20040;-67
2024/04/03 06:05:06;;;;;;;1.90;1.23;;;8.50;99.90;;;;;;5081759;28;20037;-67
2024/04/03 06:07:33;;;;;;;1.77;0.70;;;8.40;94.30;;;;;;5082272;28;20025;-67
2024/04/03 06:10:00;;;;;;;2.80;1.35;;;8.50;94.10;;;;;;5081517;28;20073;-67
2024/04/03 06:12:25;;;;;;;2.47;0.73;;;8.60;93.40;;;;;;5081673;28;20028;-67
2024/04/03 06:14:51;;;;;;;1.95;0.93;;;8.80;92.40;;;;;;5081446;28;20068;-66
2024/04/03 06:17:17;;;;;;;2.17;0.75;;;8.90;92.30;;;;;;5081638;28;20312;-66
2024/04/03 06:19:43;;;;;;;2.95;0.80;;;9.10;92.30;;;;;;5081403;28;20071;-66
2024/04/03 06:22:08;;;;;;;1.00;0.80;;;9.10;92.10;;;;;;5081796;28;20024;-66
2024/04/03 06:24:34;;;;;;;2.10;0.85;;;9.20;92.00;;;;;;5087932;28;20358;-66
2024/04/03 06:27:00;;;;;;;1.10;0.68;;;9.30;92.00;;;;;;5081247;28;20051;-66
2024/04/03 06:29:25;;;;;;;4.28;0.90;;;9.90;99.90;;;;;;5080113;28;20036;-66
2024/04/03 06:31:52;;;;;;;1.23;0.65;;;9.70;93.70;;;;;;5080382;28;20039;-66
2024/04/03 06:34:18;;;;;;;1.40;0.93;;;9.90;93.00;;;;;;5080367;28;20031;-66
2024/04/03 06:36:44;;;;;;;1.35;0.85;;;10.20;92.70;;;;;;5080031;28;20027;-66
2024/04/03 06:39:10;;;;;;;1.40;0.80;;;10.80;95.00;;;;;;5079801;28;20320;-66
2024/04/03 06:41:35;;;;;;;1.83;0.70;;;10.60;81.90;;;;;;5080966;28;20048;-66
2024/04/03 06:44:01;;;;;;;1.50;0.70;;;10.70;82.80;;;;;;5080279;28;20028;-66
2024/04/03 06:46:27;;;;;;;1.77;0.60;;;10.80;81.30;;;;;;5079119;28;20041;-66
2024/04/03 06:48:53;;;;;;;3.13;0.90;;;10.90;78.60;;;;;;5080040;28;20059;-66
2024/04/03 06:51:19;;;;;;;1.67;0.70;;;11.20;78.00;;;;;;5080582;28;20032;-66
2024/04/03 06:53:45;;;;;;;2.35;0.80;;;11.30;76.60;;;;;;5080651;28;20029;-66
2024/04/03 06:56:11;;;;;;;3.20;0.75;;;11.50;76.30;;;;;;5080858;28;20459;-66
2024/04/03 06:58:43;;;;;;;0.65;0.60;;;11.60;75.50;;;;;;5081595;28;20044;-66
2024/04/03 07:01:11;;;;;;;2.05;1.00;;;11.80;71.60;;;;;;5080950;28;20122;-66
2024/04/03 07:03:38;;;;;;;2.45;0.63;;;11.90;72.50;;;;;;5080613;28;20082;-66
2024/04/03 07:06:05;;;;;;;1.52;0.65;;;12.00;71.90;;;;;;5080710;28;20048;-66
2024/04/03 07:08:31;;;;;;;1.60;0.90;;;12.20;71.40;;;;;;5082592;28;20028;-66
2024/04/03 07:10:56;;;;;;;8.27;1.05;;;12.40;70.00;;;;;;5080278;28;20041;-66
2024/04/03 07:13:22;;;;;;;2.75;0.50;;;12.70;87.90;;;;;;5080297;28;20033;-66
2024/04/03 07:15:49;;;;;;;2.75;1.15;;;12.50;88.00;;;;;;5080874;28;20224;-65
2024/04/03 07:18:15;;;;;;;6.90;0.93;;;12.70;69.40;;;;;;5080310;28;20391;-66
2024/04/03 07:20:41;;;;;;;2.88;0.70;;;12.90;69.40;;;;;;5078871;28;20029;-66
2024/04/03 07:23:08;;;;;;;1.80;0.85;;;13.10;68.90;;;;;;5079974;28;20029;-66
2024/04/03 07:25:33;;;;;;;1.17;0.70;;;13.50;85.80;;;;;;5080266;28;20056;-66
2024/04/03 07:28:12;;;;;;;3.55;0.63;;;13.40;67.00;;;;;;5080965;28;20055;-66
2024/04/03 07:30:42;;;;;;;2.45;0.90;;;13.70;63.40;;;;;;5089381;28;20086;-66
2024/04/03 07:33:09;;;;;;;1.25;0.60;;;13.80;62.60;;;;;;5079591;28;20039;-66
2024/04/03 07:35:37;;;;;;;3.22;0.70;;;;;;;;;;5080330;28;20040;-66
2024/04/03 07:38:06;;;;;;;3.05;0.80;;;14.00;60.90;;;;;;5079000;28;20224;-67
2024/04/03 07:40:32;;;;;;;3.92;0.60;;;14.20;76.10;;;;;;5079468;28;20028;-66
2024/04/03 07:42:58;;;;;;;1.13;0.50;;;;;;;;;;5080229;28;20106;-66
2024/04/03 07:45:24;;;;;;;0.50;0.50;;;14.60;75.40;;;;;;5079812;28;20452;-66
2024/04/03 07:47:50;;;;;;;2.17;0.63;;;14.50;75.80;;;;;;5086424;28;20032;-66
2024/04/03 07:50:16;;;;;;;1.05;0.43;;;15.00;74.50;;;;;;5080405;28;20032;-66
2024/04/03 07:52:42;;;;;;;0.73;0.40;;;14.80;72.50;;;;;;5079700;28;20069;-67
2024/04/03 07:55:11;;;;;;;2.50;0.38;;;14.90;55.80;;;;;;5079734;28;20020;-66
2024/04/03 07:57:37;;;;;;;;;;;15.00;55.90;;;;;;5081215;28;20399;-66
2024/04/03 08:00:05;;;;;;;1.27;0.50;;;15.10;55.10;;;;;;5079660;28;19920;-66
2024/04/03 08:02:39;;;;;;;0.73;0.30;;;15.20;55.30;;;;;;5079893;28;20035;-66
2024/04/03 08:05:14;;;;;;;1.80;0.30;;;15.40;70.80;;;;;;5079048;28;20044;-67
2024/04/03 08:07:44;;;;;;;10.50;0.70;;;15.50;70.50;;;;;;5084355;28;20035;-66
2024/04/03 08:10:11;;;;;;;1.48;0.50;;;15.40;56.30;;;;;;5078422;28;20039;-66
2024/04/03 08:12:39;;;;;;;0.90;0.43;;;15.60;54.30;;;;;;5079570;28;20028;-65
2024/04/03 08:15:06;;;;;;;1.13;0.30;;;15.80;68.00;;;;;;5079462;28;20036;-66
2024/04/03 08:17:32;;;;;;;8.32;1.15;;;15.70;51.20;;;;;;5079472;28;20316;-66
2024/04/03 08:19:58;;;;;;;2.38;0.65;;;;;;;;;;5078052;28;20086;-66
2024/04/03 08:22:24;;;;;;;5.43;0.98;;;15.80;66.10;;;;;;5080246;28;20039;-66
2024/04/03 08:24:51;;;;;;;0.30;0.30;;;15.80;67.30;;;;;;5078994;28;20060;-66
2024/04/03 08:27:18;;;;;;;3.00;0.30;;;15.90;52.20;;;;;;5079485;28;20083;-66
2024/04/03 08:29:46;;;;;;;3.25;0.50;;;16.00;66.40;;;;;;5079239;28;20032;-66
2024/04/03 08:32:16;;;;;;;6.03;0.70;;;16.00;63.30;;;;;;5079470;28;20028;-66
2024/04/03 08:34:42;;;;;;;1.95;0.50;;;16.40;51.90;;;;;;5078975;28;20028;-66
2024/04/03 08:37:13;;;;;;;2.47;1.00;;;16.20;48.80;;;;;;5079353;28;20112;-66
2024/04/03 08:39:40;;;;;;;0.95;0.35;;;16.60;48.50;;;;;;5079792;28;20036;-65
2024/04/03 08:42:06;;;;;;;0.50;0.35;;;16.10;55.60;;;;;;5079318;28;20088;-66
2024/04/03 08:44:33;;;;;;;0.95;0.45;;;16.30;49.00;;;;;;5079295;28;20024;-66
2024/04/03 08:47:00;;;;;;;1.25;0.32;;;16.20;48.60;;;;;;5081588;28;20059;-66
2024/04/03 08:49:30;;;;;;;1.63;0.40;;;16.40;62.70;;;;;;5084441;28;20036;-66
2024/04/03 08:52:10;;;;;;;0.93;0.45;;;16.60;63.60;;;;;;5082305;28;20060;-66
2024/04/03 08:54:39;;;;;;;0.68;0.40;;;16.50;49.70;;;;;;5083166;28;20355;-66
2024/04/03 08:57:07;;;;;;;1.10;0.43;;;16.50;54.40;;;;;;5087536;28;20095;-66
2024/04/03 08:59:36;;;;;;;1.75;0.60;;;16.70;63.20;;;;;;5083100;28;20389;-66
2024/04/03 09:02:02;;;;;;;1.77;0.40;;;16.70;63.00;;;;;;5082913;28;20020;-66
2024/04/03 09:04:28;;;;;;;0.47;0.30;;;17.20;63.60;;;;;;5083004;28;20269;-66
2024/04/03 09:06:54;;;;;;;1.45;0.57;;;16.90;63.20;;;;;;5084583;28;20031;-66
2024/04/03 09:09:25;;;;;;;1.50;0.60;;;17.00;47.50;;;;;;5082904;28;20047;-66
2024/04/03 09:11:59;;;;;;;2.00;0.60;;;17.00;54.00;;;;;;5082684;28;20070;-66
2024/04/03 09:14:25;;;;;;;1.35;0.70;;;17.00;60.80;;;;;;5083260;28;20086;-66
2024/04/03 09:16:58;;;;;;;2.17;0.52;;;17.10;61.40;;;;;;5082551;28;20036;-66
2024/04/03 09:19:24;;;;;;;3.45;0.60;;;17.00;61.80;;;;;;5086418;28;20054;-66
2024/04/03 09:21:49;;;;;;;1.45;0.85;;;17.20;61.60;;;;;;5082587;28;20032;-66
2024/04/03 09:24:15;;;;;;;2.83;0.20;;;17.30;61.70;;;;;;5082326;28;20143;-66
2024/04/03 09:26:48;;;;;;;3.10;0.45;;;17.20;62.90;;;;;;5084679;28;20040;-66
2024/04/03 09:29:17;;;;;;;1.00;0.28;;;17.50;62.40;;;;;;5082429;28;20308;-66
2024/04/03 09:31:47;;;;;;;1.02;0.45;;;17.50;46.50;;;;;;5083113;28;20021;-66
2024/04/03 09:34:14;;;;;;;1.15;0.30;;;17.50;46.10;;;;;;5082300;28;20050;-66
2024/04/03 09:36:41;;;;;;;2.72;0.38;;;17.60;60.40;;;;;;5082206;28;20044;-66
2024/04/03 09:39:11;;;;;;;1.00;0.90;;;17.90;60.40;;;;;;5082347;28;20028;-66
2024/04/03 09:41:40;;;;;;;1.30;0.60;;;17.40;59.70;;;;;;5082289;28;20041;-66
2024/04/03 09:44:08;;;;;;;;;;;17.60;46.20;;;;;;5082742;28;20188;-66
2024/04/03 09:46:46;;;;;;;1.08;0.43;;;17.50;60.00;;;;;;5082128;28;19912;-66
2024/04/03 09:49:14;;;;;;;1.45;0.50;;;17.60;49.60;;;;;;5083024;28;20117;-66
2024/04/03 09:51:40;;;;;;;3.38;0.98;;;17.40;59.10;;;;;;5081992;28;20206;-66
2024/04/03 09:54:09;;;;;;;1.50;0.50;;;17.60;60.90;;;;;;5081994;28;20036;-66
2024/04/03 09:56:38;;;;;;;0.98;0.50;;;17.80;59.50;;;;;;5081812;28;20025;-66
2024/04/03 09:59:06;;;;;;;2.85;0.47;;;17.80;59.40;;;;;;5081771;28;20051;-66
2024/04/03 10:01:34;;;;;;;;;;;17.90;45.70;;;;;;5082262;28;20322;-66
2024/04/03 10:04:04;;;;;;;1.95;0.77;;;17.80;59.30;;;;;;5081828;28;20183;-66
2024/04/03 10:06:37;;;;;;;2.22;0.80;;;17.90;59.20;;;;;;5065105;28;20029;-66
2024/04/03 10:09:39;;;;;;;2.95;0.60;;;17.80;49.20;;;;;;5097189;28;20029;-66
2024/04/03 10:12:07;;;;;;;0.30;0.30;;;18.10;59.50;;;;;;5059468;28;20152;-66
2024/04/03 10:14:36;;;;;;;1.83;0.90;;;18.00;58.90;;;;;;5077484;28;20052;-66
2024/04/03 10:17:15;;;;;;;1.05;0.50;;;18.10;58.40;;;;;;5080290;28;20322;-66
2024/04/03 10:19:42;;;;;;;0.77;0.40;;;18.10;59.00;;;;;;5081571;28;20032;-66
2024/04/03 10:22:14;;;;;;;2.63;0.50;;;18.00;59.20;;;;;;5082048;28;20063;-66
2024/04/03 10:24:43;;;;;;;2.30;0.52;;;18.20;58.40;;;;;;5081110;28;20359;-66
2024/04/03 10:27:10;;;;;;;0.82;0.47;;;18.60;58.20;;;;;;5081579;28;20073;-66
2024/04/03 10:29:37;;;;;;;1.95;0.60;;;18.80;58.10;;;;;;5081456;28;20039;-66
2024/04/03 10:32:03;;;;;;;2.63;0.90;;;;;;;;;;5081287;28;20033;-66
2024/04/03 10:34:30;;;;;;;2.67;0.63;;;19.50;57.90;;;;;;5079986;28;20032;-66
2024/04/03 10:36:57;;;;;;;1.38;0.80;;;19.30;57.80;;;;;;5090840;28;20040;-66
2024/04/03 10:39:23;;;;;;;1.98;0.63;;;;;;;;;;5087600;28;20032;-66
2024/04/03 10:41:58;;;;;;;2.85;0.75;;;19.70;53.30;;;;;;5081154;28;20028;-66
2024/04/03 10:44:24;;;;;;;1.27;0.50;;;19.20;53.30;;;;;;5081053;28;20028;-66
2024/04/03 10:46:50;;;;;;;0.75;0.57;;;19.20;57.80;;;;;;5080827;28;20032;-66
2024/04/03 10:49:16;;;;;;;1.05;0.50;;;19.30;56.80;;;;;;5081018;28;20070;-66
2024/04/03 10:51:41;;;;;;;1.02;0.90;;;19.30;51.60;;;;;;5080797;28;20059;-66
2024/04/03 10:54:12;;;;;;;1.02;0.50;;;19.20;45.70;;;;;;5080924;28;20256;-66
2024/04/03 10:56:39;;;;;;;0.95;0.50;;;;;;;;;;5085862;28;20040;-66
2024/04/03 10:59:07;;;;;;;0.82;0.43;;;19.50;57.70;;;;;;5079522;28;20209;-66
2024/04/03 11:01:34;;;;;;;1.08;0.52;;;19.70;45.70;;;;;;5079581;28;20048;-66
2024/04/03 11:04:04;;;;;;;1.70;0.45;;;20.20;51.20;;;;;;5080497;28;20028;-66
2024/04/03 11:06:29;;;;;;;1.23;0.80;;;20.00;55.50;;;;;;5079756;28;20032;-66
2024/04/03 11:08:55;;;;;;;0.90;0.40;;;20.10;55.00;;;;;;5080667;28;20044;-66
2024/04/03 11:11:21;;;;;;;2.03;0.40;;;20.00;54.30;;;;;;5080561;28;20081;-66
2024/04/03 11:13:47;;;;;;;1.10;0.55;;;20.00;55.50;;;;;;5080190;28;20086;-66
2024/04/03 11:16:13;;;;;;;0.98;0.47;;;;;;;;;;5066022;28;20039;-66
2024/04/03 11:18:43;;;;;;;3.88;0.50;;;20.10;43.20;;;;;;5076674;28;20228;-66
2024/04/03 11:21:09;;;;;;;1.83;0.43;;;;;;;;;;5080511;28;20054;-66
2024/04/03 11:23:37;;;;;;;0.85;0.40;;;20.10;51.30;;;;;;5079899;28;20041;-67
2024/04/03 11:26:04;;;;;;;2.17;0.40;;;20.10;42.30;;;;;;5080064;28;20044;-66
2024/04/03 11:28:30;;;;;;;3.55;0.40;;;;;;;;;;5080188;28;20047;-66
2024/04/03 11:30:56;;;;;;;0.98;0.28;;;;;;;;;;5079338;28;20028;-66
2024/04/03 11:33:21;;;;;;;0.68;0.50;;;19.80;51.90;;;;;;5080120;28;20074;-66
2024/04/03 11:35:47;;;;;;;0.95;0.50;;;20.20;51.40;;;;;;5080137;28;20028;-66
2024/04/03 11:38:13;;;;;;;2.15;0.50;;;;;;;;;;5080272;28;20017;-66
2024/04/03 11:40:39;;;;;;;0.88;0.30;;;;;;;;;;5080020;28;20055;-66
2024/04/03 11:43:05;;;;;;;0.90;0.30;;;20.40;45.20;;;;;;5080170;28;20028;-66
2024/04/03 11:45:32;;;;;;;0.73;0.30;;;20.70;47.10;;;;;;5079956;28;20040;-66
2024/04/03 11:47:58;;;;;;;0.57;0.32;;;20.60;42.50;;;;;;5086910;28;20081;-66
2024/04/03 11:50:23;;;;;;;1.58;0.40;;;20.80;49.80;;;;;;5079909;28;20107;-66
2024/04/03 11:52:50;;;;;;;2.42;0.85;;;;;;;;;;5079657;28;20040;-66
2024/04/03 11:55:15;;;;;;;0.60;0.25;;;20.60;50.00;;;;;;5079796;28;20031;-66
2024/04/03 11:57:42;;;;;;;0.98;0.20;;;;;;;;;;5079869;28;20024;-66
2024/04/03 12:00:13;;;;;;;0.30;0.20;;;;;;;;;;5079895;28;20334;-66
2024/04/03 12:02:39;;;;;;;1.38;0.30;;;;;;;;;;5079735;28;20044;-66
2024/04/03 12:05:06;;;;;;;1.08;0.30;;;20.80;38.70;;;;;;5079297;28;20055;-65
2024/04/03 12:07:32;;;;;;;1.13;0.20;;;21.10;49.60;;;;;;5085481;28;20079;-66
2024/04/03 12:09:59;;;;;;;1.48;0.30;;;21.30;44.60;;;;;;5080336;28;20040;-66
2024/04/03 12:12:28;;;;;;;0.30;0.30;;;21.40;42.20;;;;;;5079444;28;20036;-66
2024/04/03 12:14:53;;;;;;;;;;;21.50;36.70;;;;;;5079813;28;20108;-66
2024/04/03 12:17:23;;;;;;;1.23;0.40;;;21.40;39.60;;;;;;5079562;28;19916;-66
2024/04/03 12:22:23;;;;;;;0.52;0.30;;;21.70;48.50;;;;;;5079478;28;20062;-66
2024/04/03 12:24:51;;;;;;;0.57;0.30;;;21.90;48.40;;;;;;5078909;28;20076;-66
2024/04/03 12:27:17;;;;;;;2.35;0.30;;;21.90;48.90;;;;;;5079205;28;20020;-66
2024/04/03 12:29:42;;;;;;;0.70;0.43;;;22.00;48.40;;;;;;5079122;28;20048;-66
2024/04/03 12:32:08;;;;;;;2.65;0.50;;;21.90;37.50;;;;;;5079267;28;20025;-66
2024/04/03 12:34:34;;;;;;;1.65;0.32;;;22.00;48.50;;;;;;5079176;28;20280;-66
2024/04/03 12:37:00;;;;;;;1.50;0.40;;;21.90;48.80;;;;;;5079922;28;20045;-66
2024/04/03 12:39:27;;;;;;;0.68;0.30;;;22.10;49.90;;;;;;5079267;28;20043;-66
2024/04/03 12:41:52;;;;;;;2.47;0.30;;;22.10;50.20;;;;;;5079140;28;20095;-66
2024/04/03 12:44:18;;;;;;;0.50;0.40;;;22.10;50.60;;;;;;5079512;28;20063;-67
2024/04/03 12:46:45;;;;;;;1.00;0.52;;;22.10;48.30;;;;;;5079261;28;20036;-66
2024/04/03 12:49:13;;;;;;;2.03;0.38;;;22.00;48.60;;;;;;5079296;28;20035;-66
2024/04/03 12:51:40;;;;;;;1.00;0.40;;;21.90;37.70;;;;;;5079269;28;20235;-66
2024/04/03 12:54:05;;;;;;;0.13;0.13;;;21.60;48.40;;;;;;5079651;28;20107;-66
2024/04/03 12:56:31;;;;;;;0.77;0.30;;;21.40;48.50;;;;;;5063348;28;20033;-66
2024/04/03 12:59:04;;;;;;;2.65;0.40;;;21.60;49.00;;;;;;5078935;28;20324;-67
2024/04/03 13:01:30;;;;;;;0.40;0.30;;;21.20;49.60;;;;;;5079111;28;20099;-66
2024/04/03 13:03:57;;;;;;;1.20;0.57;;;21.10;50.50;;;;;;5079097;28;20037;-66